King Hakan — V7WI2 — position and weather

sailwx.info

Track history (hours):
 
Tides and Currents Weather Stations Pressure Air Temp Water Temp Dewpoint Dewpoint Depression Visibility Wind Speed Wind Dir Waves Ship Positions

King Hakan

Last reported at 2014-Jul-29 02:33 UTC. Time now 2014-Jul-29 02:39 UTC.
Position N 38°59' E 117°46'.

Length 229 m; draft 11.5 m.

Type: Cargo ship. MMSI: 538090439.

Date/timePositionNaut miles runAvg speedWind from/ knotsBaromVisibWave heightAir tempDewpointWater temp
2014-Jul-29 02:33N 38°59' E 117°46'0 0.0
2014-Jul-29 01:32N 38°59' E 117°46'0 0.0
2014-Jul-29 00:33N 38°59' E 117°46'0 0.0
2014-Jul-28 23:27N 38°59' E 117°46'0 0.0
2014-Jul-28 22:33N 38°59' E 117°46'0 0.0
2014-Jul-28 21:33N 38°59' E 117°46'0 0.0
2014-Jul-28 20:32N 38°59' E 117°46'0 0.0
2014-Jul-28 19:33N 38°59' E 117°46'0 0.0
2014-Jul-28 18:32N 38°59' E 117°46'0 0.0
2014-Jul-28 17:32N 38°59' E 117°46'0 0.0
2014-Jul-28 16:32N 38°59' E 117°46'0 0.0
2014-Jul-28 15:32N 38°59' E 117°46'0 0.0
2014-Jul-28 14:33N 38°59' E 117°46'0 0.0
2014-Jul-28 13:33N 38°59' E 117°46'0 0.0
2014-Jul-28 12:32N 38°59' E 117°46'0 0.0
2014-Jul-28 11:33N 38°59' E 117°46'0 0.0
2014-Jul-28 10:32N 38°59' E 117°46'0 0.0
2014-Jul-28 09:33N 38°59' E 117°46'0 0.0
2014-Jul-28 08:32N 38°59' E 117°46'0 0.0
2014-Jul-28 07:33N 38°59' E 117°46'0 0.0
2014-Jul-28 06:29N 38°59' E 117°46'0 0.0
2014-Jul-28 05:32N 38°59' E 117°46'0 0.0
2014-Jul-28 04:32N 38°59' E 117°46'0 0.0
2014-Jul-28 03:32N 38°59' E 117°46'0 0.0
2014-Jul-28 02:32N 38°59' E 117°46'0 0.0
2014-Jul-28 01:33N 38°59' E 117°46'0 0.0
2014-Jul-28 00:32N 38°59' E 117°46'0 0.0
2014-Jul-27 23:29N 38°59' E 117°46'2 2.0
2014-Jul-27 22:34N 38°58' E 117°48'1111.0
2014-Jul-27 21:33N 38°56' E 118°02'8 8.3
2014-Jul-27 20:33N 38°53' E 118°12'3 3.1
2014-Jul-27 19:33N 38°51' E 118°15'7 7.2
2014-Jul-27 18:33N 38°51' E 118°24'7 7.2
2014-Jul-27 17:33N 38°50' E 118°34'7 7.3
2014-Jul-27 16:33N 38°49' E 118°43'7710.8
2014-Jul-27 09:27N 39°15' E 120°16'1011.2
2014-Jul-27 08:33N 39°21' E 120°26'3210.1
2014-Jul-27 05:21N 39°41' E 120°59'810.2
2014-Jul-27 04:32N 39°47' E 121°07'4911.5
2014-Jul-27 00:19N 40°18' E 121°55'7 8.9
2014-Jul-26 23:33N 40°18' E 122°04'0 0.4
2014-Jul-26 22:33N 40°19' E 122°05'0 0.0
2014-Jul-26 21:33N 40°19' E 122°05'0 0.0
2014-Jul-26 20:33N 40°19' E 122°05'0 0.0
2014-Jul-26 19:33N 40°19' E 122°05'0 0.0
2014-Jul-26 18:33N 40°19' E 122°05'0 0.0
2014-Jul-26 17:33N 40°19' E 122°05'0 0.0
2014-Jul-26 16:33N 40°19' E 122°05'0 0.0
2014-Jul-26 15:33N 40°19' E 122°05'0 0.0
2014-Jul-26 14:33N 40°19' E 122°05'0 0.0
2014-Jul-26 13:33N 40°19' E 122°05'0 0.0
2014-Jul-26 12:33N 40°19' E 122°05'0 0.0
2014-Jul-26 11:33N 40°19' E 122°05'0 0.0
2014-Jul-26 10:27N 40°19' E 122°05'0 0.0
2014-Jul-26 09:33N 40°19' E 122°05'0 0.0
2014-Jul-26 08:33N 40°19' E 122°05'0 0.0
2014-Jul-26 07:33N 40°19' E 122°05'0 0.0
2014-Jul-26 06:33N 40°19' E 122°05'0 0.0
2014-Jul-26 05:33N 40°19' E 122°05'0 0.0
2014-Jul-26 04:33N 40°19' E 122°05'0 0.0
2014-Jul-26 03:33N 40°19' E 122°05'0 0.0
2014-Jul-26 02:33N 40°19' E 122°05'0 0.0
2014-Jul-26 01:33N 40°19' E 122°05'0 0.0
2014-Jul-26 00:33N 40°19' E 122°05'0 0.0
2014-Jul-25 23:33N 40°19' E 122°05'0 0.0
2014-Jul-25 22:33N 40°19' E 122°05'0 0.0
2014-Jul-25 21:33N 40°19' E 122°05'0 0.0
2014-Jul-25 20:21N 40°19' E 122°05'0 0.0
2014-Jul-25 19:33N 40°19' E 122°05'0 0.0
2014-Jul-25 18:33N 40°19' E 122°05'0 0.0
2014-Jul-25 17:33N 40°19' E 122°05'0 0.0
2014-Jul-25 16:27N 40°19' E 122°05'0 0.0
2014-Jul-25 15:33N 40°19' E 122°05'0 0.0
2014-Jul-25 14:33N 40°19' E 122°05'0 0.0
2014-Jul-25 13:33N 40°19' E 122°05'0 0.0
2014-Jul-25 12:33N 40°19' E 122°05'0 0.0
2014-Jul-25 11:21N 40°19' E 122°05'0 0.0
2014-Jul-25 10:33N 40°19' E 122°05'0 0.0
2014-Jul-25 09:27N 40°19' E 122°05'0 0.0
2014-Jul-25 08:33N 40°19' E 122°05'0 0.0
2014-Jul-25 07:27N 40°19' E 122°05'0 0.0
2014-Jul-25 06:33N 40°19' E 122°05'0 0.0
2014-Jul-25 05:33N 40°19' E 122°05'0 0.0
2014-Jul-25 04:33N 40°19' E 122°05'0 0.0
2014-Jul-25 03:33N 40°19' E 122°05'0 0.0
2014-Jul-25 02:33N 40°19' E 122°05'0 0.0
2014-Jul-25 01:33N 40°19' E 122°05'0 0.0
2014-Jul-25 00:33N 40°19' E 122°05'0 0.0
2014-Jul-24 23:33N 40°19' E 122°05'0 0.0
2014-Jul-24 22:33N 40°19' E 122°05'0 0.0
2014-Jul-24 21:33N 40°19' E 122°05'0 0.0
2014-Jul-24 20:33N 40°19' E 122°05'0 0.0
2014-Jul-24 19:33N 40°19' E 122°05'0 0.0
2014-Jul-24 18:33N 40°19' E 122°05'0 0.0
2014-Jul-24 17:33N 40°19' E 122°05'0 0.0
2014-Jul-24 16:33N 40°19' E 122°05'0 0.0
2014-Jul-24 15:33N 40°19' E 122°05'0 0.0
2014-Jul-24 14:33N 40°19' E 122°05'0 0.0
2014-Jul-24 13:33N 40°19' E 122°05'0 0.0
2014-Jul-24 12:33N 40°19' E 122°05'0 0.0
2014-Jul-24 11:33N 40°19' E 122°05'0 0.0
2014-Jul-24 10:33N 40°19' E 122°05'0 0.0
2014-Jul-24 09:33N 40°19' E 122°05'0 0.0
2014-Jul-24 08:33N 40°19' E 122°05'0 0.0
2014-Jul-24 07:33N 40°19' E 122°05'0 0.0
2014-Jul-24 06:27N 40°19' E 122°05'0 0.0
2014-Jul-24 05:27N 40°19' E 122°05'0 0.0
2014-Jul-24 04:27N 40°19' E 122°05'0 0.0
2014-Jul-24 03:33N 40°19' E 122°05'0 0.0
2014-Jul-24 02:27N 40°19' E 122°05'0 0.0
2014-Jul-24 01:33N 40°19' E 122°05'0 0.0
2014-Jul-24 00:33N 40°19' E 122°05'0 0.0
2014-Jul-23 23:33N 40°19' E 122°05'0 0.0
2014-Jul-23 22:33N 40°19' E 122°05'0 0.0
2014-Jul-23 21:33N 40°19' E 122°05'0 0.0
2014-Jul-23 20:33N 40°19' E 122°05'0 0.0
2014-Jul-23 19:33N 40°19' E 122°05'0 0.0
2014-Jul-23 18:33N 40°19' E 122°05'0 0.0
2014-Jul-23 17:33N 40°19' E 122°05'0 0.0
2014-Jul-23 16:33N 40°19' E 122°05'0 0.0
2014-Jul-23 15:33N 40°19' E 122°05'0 0.0
2014-Jul-23 14:33N 40°19' E 122°05'0 0.0
2014-Jul-23 13:33N 40°19' E 122°05'0 0.0
2014-Jul-23 12:33N 40°19' E 122°05'0 0.0
2014-Jul-23 11:33N 40°19' E 122°05'0 0.0
2014-Jul-23 10:27N 40°19' E 122°05'0 0.0
2014-Jul-23 09:33N 40°19' E 122°05'0 0.0
2014-Jul-23 08:33N 40°19' E 122°05'0 0.0
2014-Jul-23 07:33N 40°19' E 122°05'0 0.0
2014-Jul-23 06:33N 40°19' E 122°05'0 0.0
2014-Jul-23 05:33N 40°19' E 122°05'0 0.0
2014-Jul-23 04:33N 40°19' E 122°05'0 0.0
2014-Jul-23 03:33N 40°19' E 122°05'0 0.0
2014-Jul-23 02:33N 40°19' E 122°05'0 0.0
2014-Jul-23 01:33N 40°19' E 122°05'0 0.0
2014-Jul-23 00:33N 40°19' E 122°05'0 0.0
2014-Jul-22 23:33N 40°19' E 122°05'0 0.0
2014-Jul-22 22:33N 40°19' E 122°05'0 0.0
2014-Jul-22 21:33N 40°19' E 122°05'0 0.0
2014-Jul-22 20:33N 40°19' E 122°05'0 0.0
2014-Jul-22 19:33N 40°19' E 122°05'0 0.0
2014-Jul-22 18:33N 40°19' E 122°05'0 0.0
2014-Jul-22 17:33N 40°19' E 122°05'0 0.0
2014-Jul-22 16:33N 40°19' E 122°05'0 0.0
2014-Jul-22 15:33N 40°19' E 122°05'0 0.0
2014-Jul-22 14:33N 40°19' E 122°05'0 0.0
2014-Jul-22 13:33N 40°19' E 122°05'0 0.0
2014-Jul-22 12:33N 40°19' E 122°05'0 0.0
2014-Jul-22 11:33N 40°19' E 122°05'0 0.0
2014-Jul-22 10:33N 40°19' E 122°05'0 0.0
2014-Jul-22 09:33N 40°19' E 122°05'0 0.0
2014-Jul-22 08:33N 40°19' E 122°05'0 0.0
2014-Jul-22 07:33N 40°19' E 122°05'0 0.0
2014-Jul-22 06:33N 40°19' E 122°05'0 0.0
2014-Jul-22 05:33N 40°19' E 122°05'0 0.0
2014-Jul-22 04:15N 40°19' E 122°05'0 0.0
2014-Jul-22 03:33N 40°19' E 122°05'0 0.0
2014-Jul-22 02:33N 40°19' E 122°05'0 0.0
2014-Jul-22 01:27N 40°19' E 122°05'0 0.0
2014-Jul-22 00:33N 40°19' E 122°05'0 0.0
2014-Jul-21 23:33N 40°19' E 122°05'0 0.0
2014-Jul-21 22:33N 40°19' E 122°05'0 0.0
2014-Jul-21 21:33N 40°19' E 122°05'0 0.0
2014-Jul-21 20:32N 40°19' E 122°05'0 0.0
2014-Jul-21 20:15N 40°19' E 122°05'0 0.0
2014-Jul-21 19:33N 40°19' E 122°05'0 0.0
2014-Jul-21 18:33N 40°19' E 122°05'0 0.0
2014-Jul-21 17:33N 40°19' E 122°05'0 0.0
2014-Jul-21 16:27N 40°19' E 122°05'0 0.0
2014-Jul-21 15:33N 40°19' E 122°05'0 0.0
2014-Jul-21 14:33N 40°19' E 122°05'0 0.0
2014-Jul-21 13:33N 40°19' E 122°05'0 0.0
2014-Jul-21 12:33N 40°19' E 122°05'0 0.0
2014-Jul-21 11:27N 40°19' E 122°05'0 0.0
2014-Jul-21 10:32N 40°19' E 122°05'0 0.0
2014-Jul-21 09:33N 40°19' E 122°05'0 0.0
2014-Jul-21 08:15N 40°19' E 122°05'0 0.0
2014-Jul-21 07:33N 40°19' E 122°05'0 0.0
2014-Jul-21 06:33N 40°19' E 122°05'0 0.0
2014-Jul-21 05:33N 40°19' E 122°05'0 0.0
2014-Jul-21 04:33N 40°19' E 122°05'0 0.0
2014-Jul-21 03:33N 40°19' E 122°05'0 0.0
2014-Jul-21 02:33N 40°19' E 122°05'0 0.0
2014-Jul-21 01:33N 40°19' E 122°05'0 0.0
2014-Jul-21 00:33N 40°19' E 122°05'0 0.0
2014-Jul-20 23:27N 40°19' E 122°05'0 0.0
2014-Jul-20 22:32N 40°19' E 122°05'0 0.0
2014-Jul-20 21:32N 40°19' E 122°05'0 0.0
2014-Jul-20 20:33N 40°19' E 122°05'0 0.0
2014-Jul-20 19:33N 40°19' E 122°05'0 0.0
2014-Jul-20 18:33N 40°19' E 122°05'0 0.0
2014-Jul-20 17:33N 40°19' E 122°05'0 0.0
2014-Jul-20 16:32N 40°19' E 122°05'0 0.0
2014-Jul-20 15:33N 40°19' E 122°05'0 0.0
2014-Jul-20 14:32N 40°19' E 122°05'0 0.0
2014-Jul-20 13:33N 40°19' E 122°05'0 0.0
2014-Jul-20 12:32N 40°19' E 122°05'0 0.0
2014-Jul-20 11:32N 40°19' E 122°05'0 0.0
2014-Jul-20 10:32N 40°19' E 122°05'0 0.0
2014-Jul-20 09:15N 40°19' E 122°05'0 0.0
2014-Jul-20 08:32N 40°19' E 122°05'0 0.0
2014-Jul-20 07:32N 40°19' E 122°05'0 0.0
2014-Jul-20 06:33N 40°19' E 122°05'0 0.0
2014-Jul-20 05:32N 40°19' E 122°05'0 0.0
2014-Jul-20 04:32N 40°19' E 122°05'0 0.0
2014-Jul-20 03:32N 40°19' E 122°05'0 0.0
2014-Jul-20 02:32N 40°19' E 122°05'0 0.0
2014-Jul-20 01:32N 40°19' E 122°05'0 0.0
2014-Jul-20 00:32N 40°19' E 122°05'0 0.0
2014-Jul-19 23:32N 40°19' E 122°05'0 0.0
2014-Jul-19 22:32N 40°19' E 122°05'0 0.0
2014-Jul-19 21:33N 40°19' E 122°05'0 0.0
2014-Jul-19 20:32N 40°19' E 122°05'0 0.0
2014-Jul-19 19:32N 40°19' E 122°05'0 0.0
2014-Jul-19 18:26N 40°19' E 122°05'0 0.0
2014-Jul-19 17:32N 40°19' E 122°05'0 0.0
2014-Jul-19 16:32N 40°19' E 122°05'0 0.0
2014-Jul-19 15:32N 40°19' E 122°05'0 0.0
2014-Jul-19 14:32N 40°19' E 122°05'0 0.0
2014-Jul-19 13:32N 40°19' E 122°05'0 0.0
2014-Jul-19 12:32N 40°19' E 122°05'0 0.0
2014-Jul-19 11:32N 40°19' E 122°05'0 0.0
2014-Jul-19 10:32N 40°19' E 122°05'0 0.0
2014-Jul-19 09:32N 40°19' E 122°05'0 0.0
2014-Jul-19 08:26N 40°19' E 122°05'0 0.0
2014-Jul-19 07:32N 40°19' E 122°05'0 0.0
2014-Jul-19 06:32N 40°19' E 122°05'1 1.4
2014-Jul-19 05:33N 40°18' E 122°03'8 8.1
2014-Jul-19 04:33N 40°20' E 121°53'3 1.9
2014-Jul-19 03:10N 40°23' E 121°53'  
Track history (hours):
 
Tides and Currents Weather Stations Pressure Air Temp Water Temp Dewpoint Dewpoint Depression Visibility Wind Speed Wind Dir Waves Ship Positions

King Hakan

Last reported at 2014-Jul-29 02:33 UTC. Time now 2014-Jul-29 02:39 UTC.
Position N 38°59' E 117°46'.

Length 229 m; draft 11.5 m.

Type: Cargo ship. MMSI: 538090439.

Date/timePositionNaut miles runAvg speedWind from/ knotsBaromVisibWave heightAir tempDewpointWater temp
2014-Jul-29 02:33N 38°59' E 117°46'0 0.0
2014-Jul-29 01:32N 38°59' E 117°46'0 0.0
2014-Jul-29 00:33N 38°59' E 117°46'0 0.0
2014-Jul-28 23:27N 38°59' E 117°46'0 0.0
2014-Jul-28 22:33N 38°59' E 117°46'0 0.0
2014-Jul-28 21:33N 38°59' E 117°46'0 0.0
2014-Jul-28 20:32N 38°59' E 117°46'0 0.0
2014-Jul-28 19:33N 38°59' E 117°46'0 0.0
2014-Jul-28 18:32N 38°59' E 117°46'0 0.0
2014-Jul-28 17:32N 38°59' E 117°46'0 0.0
2014-Jul-28 16:32N 38°59' E 117°46'0 0.0
2014-Jul-28 15:32N 38°59' E 117°46'0 0.0
2014-Jul-28 14:33N 38°59' E 117°46'0 0.0
2014-Jul-28 13:33N 38°59' E 117°46'0 0.0
2014-Jul-28 12:32N 38°59' E 117°46'0 0.0
2014-Jul-28 11:33N 38°59' E 117°46'0 0.0
2014-Jul-28 10:32N 38°59' E 117°46'0 0.0
2014-Jul-28 09:33N 38°59' E 117°46'0 0.0
2014-Jul-28 08:32N 38°59' E 117°46'0 0.0
2014-Jul-28 07:33N 38°59' E 117°46'0 0.0
2014-Jul-28 06:29N 38°59' E 117°46'0 0.0
2014-Jul-28 05:32N 38°59' E 117°46'0 0.0
2014-Jul-28 04:32N 38°59' E 117°46'0 0.0
2014-Jul-28 03:32N 38°59' E 117°46'0 0.0
2014-Jul-28 02:32N 38°59' E 117°46'0 0.0
2014-Jul-28 01:33N 38°59' E 117°46'0 0.0
2014-Jul-28 00:32N 38°59' E 117°46'0 0.0
2014-Jul-27 23:29N 38°59' E 117°46'2 2.0
2014-Jul-27 22:34N 38°58' E 117°48'1111.0
2014-Jul-27 21:33N 38°56' E 118°02'8 8.3
2014-Jul-27 20:33N 38°53' E 118°12'3 3.1
2014-Jul-27 19:33N 38°51' E 118°15'7 7.2
2014-Jul-27 18:33N 38°51' E 118°24'7 7.2
2014-Jul-27 17:33N 38°50' E 118°34'7 7.3
2014-Jul-27 16:33N 38°49' E 118°43'7710.8
2014-Jul-27 09:27N 39°15' E 120°16'1011.2
2014-Jul-27 08:33N 39°21' E 120°26'3210.1
2014-Jul-27 05:21N 39°41' E 120°59'810.2
2014-Jul-27 04:32N 39°47' E 121°07'4911.5
2014-Jul-27 00:19N 40°18' E 121°55'7 8.9
2014-Jul-26 23:33N 40°18' E 122°04'0 0.4
2014-Jul-26 22:33N 40°19' E 122°05'0 0.0
2014-Jul-26 21:33N 40°19' E 122°05'0 0.0
2014-Jul-26 20:33N 40°19' E 122°05'0 0.0
2014-Jul-26 19:33N 40°19' E 122°05'0 0.0
2014-Jul-26 18:33N 40°19' E 122°05'0 0.0
2014-Jul-26 17:33N 40°19' E 122°05'0 0.0
2014-Jul-26 16:33N 40°19' E 122°05'0 0.0
2014-Jul-26 15:33N 40°19' E 122°05'0 0.0
2014-Jul-26 14:33N 40°19' E 122°05'0 0.0
2014-Jul-26 13:33N 40°19' E 122°05'0 0.0
2014-Jul-26 12:33N 40°19' E 122°05'0 0.0
2014-Jul-26 11:33N 40°19' E 122°05'0 0.0
2014-Jul-26 10:27N 40°19' E 122°05'0 0.0
2014-Jul-26 09:33N 40°19' E 122°05'0 0.0
2014-Jul-26 08:33N 40°19' E 122°05'0 0.0
2014-Jul-26 07:33N 40°19' E 122°05'0 0.0
2014-Jul-26 06:33N 40°19' E 122°05'0 0.0
2014-Jul-26 05:33N 40°19' E 122°05'0 0.0
2014-Jul-26 04:33N 40°19' E 122°05'0 0.0
2014-Jul-26 03:33N 40°19' E 122°05'0 0.0
2014-Jul-26 02:33N 40°19' E 122°05'0 0.0
2014-Jul-26 01:33N 40°19' E 122°05'0 0.0
2014-Jul-26 00:33N 40°19' E 122°05'0 0.0
2014-Jul-25 23:33N 40°19' E 122°05'0 0.0
2014-Jul-25 22:33N 40°19' E 122°05'0 0.0
2014-Jul-25 21:33N 40°19' E 122°05'0 0.0
2014-Jul-25 20:21N 40°19' E 122°05'0 0.0
2014-Jul-25 19:33N 40°19' E 122°05'0 0.0
2014-Jul-25 18:33N 40°19' E 122°05'0 0.0
2014-Jul-25 17:33N 40°19' E 122°05'0 0.0
2014-Jul-25 16:27N 40°19' E 122°05'0 0.0
2014-Jul-25 15:33N 40°19' E 122°05'0 0.0
2014-Jul-25 14:33N 40°19' E 122°05'0 0.0
2014-Jul-25 13:33N 40°19' E 122°05'0 0.0
2014-Jul-25 12:33N 40°19' E 122°05'0 0.0
2014-Jul-25 11:21N 40°19' E 122°05'0 0.0
2014-Jul-25 10:33N 40°19' E 122°05'0 0.0
2014-Jul-25 09:27N 40°19' E 122°05'0 0.0
2014-Jul-25 08:33N 40°19' E 122°05'0 0.0
2014-Jul-25 07:27N 40°19' E 122°05'0 0.0
2014-Jul-25 06:33N 40°19' E 122°05'0 0.0
2014-Jul-25 05:33N 40°19' E 122°05'0 0.0
2014-Jul-25 04:33N 40°19' E 122°05'0 0.0
2014-Jul-25 03:33N 40°19' E 122°05'0 0.0
2014-Jul-25 02:33N 40°19' E 122°05'0 0.0
2014-Jul-25 01:33N 40°19' E 122°05'0 0.0
2014-Jul-25 00:33N 40°19' E 122°05'0 0.0
2014-Jul-24 23:33N 40°19' E 122°05'0 0.0
2014-Jul-24 22:33N 40°19' E 122°05'0 0.0
2014-Jul-24 21:33N 40°19' E 122°05'0 0.0
2014-Jul-24 20:33N 40°19' E 122°05'0 0.0
2014-Jul-24 19:33N 40°19' E 122°05'0 0.0
2014-Jul-24 18:33N 40°19' E 122°05'0 0.0
2014-Jul-24 17:33N 40°19' E 122°05'0 0.0
2014-Jul-24 16:33N 40°19' E 122°05'0 0.0
2014-Jul-24 15:33N 40°19' E 122°05'0 0.0
2014-Jul-24 14:33N 40°19' E 122°05'0 0.0
2014-Jul-24 13:33N 40°19' E 122°05'0 0.0
2014-Jul-24 12:33N 40°19' E 122°05'0 0.0
2014-Jul-24 11:33N 40°19' E 122°05'0 0.0
2014-Jul-24 10:33N 40°19' E 122°05'0 0.0
2014-Jul-24 09:33N 40°19' E 122°05'0 0.0
2014-Jul-24 08:33N 40°19' E 122°05'0 0.0
2014-Jul-24 07:33N 40°19' E 122°05'0 0.0
2014-Jul-24 06:27N 40°19' E 122°05'0 0.0
2014-Jul-24 05:27N 40°19' E 122°05'0 0.0
2014-Jul-24 04:27N 40°19' E 122°05'0 0.0
2014-Jul-24 03:33N 40°19' E 122°05'0 0.0
2014-Jul-24 02:27N 40°19' E 122°05'0 0.0
2014-Jul-24 01:33N 40°19' E 122°05'0 0.0
2014-Jul-24 00:33N 40°19' E 122°05'0 0.0
2014-Jul-23 23:33N 40°19' E 122°05'0 0.0
2014-Jul-23 22:33N 40°19' E 122°05'0 0.0
2014-Jul-23 21:33N 40°19' E 122°05'0 0.0
2014-Jul-23 20:33N 40°19' E 122°05'0 0.0
2014-Jul-23 19:33N 40°19' E 122°05'0 0.0
2014-Jul-23 18:33N 40°19' E 122°05'0 0.0
2014-Jul-23 17:33N 40°19' E 122°05'0 0.0
2014-Jul-23 16:33N 40°19' E 122°05'0 0.0
2014-Jul-23 15:33N 40°19' E 122°05'0 0.0
2014-Jul-23 14:33N 40°19' E 122°05'0 0.0
2014-Jul-23 13:33N 40°19' E 122°05'0 0.0
2014-Jul-23 12:33N 40°19' E 122°05'0 0.0
2014-Jul-23 11:33N 40°19' E 122°05'0 0.0
2014-Jul-23 10:27N 40°19' E 122°05'0 0.0
2014-Jul-23 09:33N 40°19' E 122°05'0 0.0
2014-Jul-23 08:33N 40°19' E 122°05'0 0.0
2014-Jul-23 07:33N 40°19' E 122°05'0 0.0
2014-Jul-23 06:33N 40°19' E 122°05'0 0.0
2014-Jul-23 05:33N 40°19' E 122°05'0 0.0
2014-Jul-23 04:33N 40°19' E 122°05'0 0.0
2014-Jul-23 03:33N 40°19' E 122°05'0 0.0
2014-Jul-23 02:33N 40°19' E 122°05'0 0.0
2014-Jul-23 01:33N 40°19' E 122°05'0 0.0
2014-Jul-23 00:33N 40°19' E 122°05'0 0.0
2014-Jul-22 23:33N 40°19' E 122°05'0 0.0
2014-Jul-22 22:33N 40°19' E 122°05'0 0.0
2014-Jul-22 21:33N 40°19' E 122°05'0 0.0
2014-Jul-22 20:33N 40°19' E 122°05'0 0.0
2014-Jul-22 19:33N 40°19' E 122°05'0 0.0
2014-Jul-22 18:33N 40°19' E 122°05'0 0.0
2014-Jul-22 17:33N 40°19' E 122°05'0 0.0
2014-Jul-22 16:33N 40°19' E 122°05'0 0.0
2014-Jul-22 15:33N 40°19' E 122°05'0 0.0
2014-Jul-22 14:33N 40°19' E 122°05'0 0.0
2014-Jul-22 13:33N 40°19' E 122°05'0 0.0
2014-Jul-22 12:33N 40°19' E 122°05'0 0.0
2014-Jul-22 11:33N 40°19' E 122°05'0 0.0
2014-Jul-22 10:33N 40°19' E 122°05'0 0.0
2014-Jul-22 09:33N 40°19' E 122°05'0 0.0
2014-Jul-22 08:33N 40°19' E 122°05'0 0.0
2014-Jul-22 07:33N 40°19' E 122°05'0 0.0
2014-Jul-22 06:33N 40°19' E 122°05'0 0.0
2014-Jul-22 05:33N 40°19' E 122°05'0 0.0
2014-Jul-22 04:15N 40°19' E 122°05'0 0.0
2014-Jul-22 03:33N 40°19' E 122°05'0 0.0
2014-Jul-22 02:33N 40°19' E 122°05'0 0.0
2014-Jul-22 01:27N 40°19' E 122°05'0 0.0
2014-Jul-22 00:33N 40°19' E 122°05'0 0.0
2014-Jul-21 23:33N 40°19' E 122°05'0 0.0
2014-Jul-21 22:33N 40°19' E 122°05'0 0.0
2014-Jul-21 21:33N 40°19' E 122°05'0 0.0
2014-Jul-21 20:32N 40°19' E 122°05'0 0.0
2014-Jul-21 20:15N 40°19' E 122°05'0 0.0
2014-Jul-21 19:33N 40°19' E 122°05'0 0.0
2014-Jul-21 18:33N 40°19' E 122°05'0 0.0
2014-Jul-21 17:33N 40°19' E 122°05'0 0.0
2014-Jul-21 16:27N 40°19' E 122°05'0 0.0
2014-Jul-21 15:33N 40°19' E 122°05'0 0.0
2014-Jul-21 14:33N 40°19' E 122°05'0 0.0
2014-Jul-21 13:33N 40°19' E 122°05'0 0.0
2014-Jul-21 12:33N 40°19' E 122°05'0 0.0
2014-Jul-21 11:27N 40°19' E 122°05'0 0.0
2014-Jul-21 10:32N 40°19' E 122°05'0 0.0
2014-Jul-21 09:33N 40°19' E 122°05'0 0.0
2014-Jul-21 08:15N 40°19' E 122°05'0 0.0
2014-Jul-21 07:33N 40°19' E 122°05'0 0.0
2014-Jul-21 06:33N 40°19' E 122°05'0 0.0
2014-Jul-21 05:33N 40°19' E 122°05'0 0.0
2014-Jul-21 04:33N 40°19' E 122°05'0 0.0
2014-Jul-21 03:33N 40°19' E 122°05'0 0.0
2014-Jul-21 02:33N 40°19' E 122°05'0 0.0
2014-Jul-21 01:33N 40°19' E 122°05'0 0.0
2014-Jul-21 00:33N 40°19' E 122°05'0 0.0
2014-Jul-20 23:27N 40°19' E 122°05'0 0.0
2014-Jul-20 22:32N 40°19' E 122°05'0 0.0
2014-Jul-20 21:32N 40°19' E 122°05'0 0.0
2014-Jul-20 20:33N 40°19' E 122°05'0 0.0
2014-Jul-20 19:33N 40°19' E 122°05'0 0.0
2014-Jul-20 18:33N 40°19' E 122°05'0 0.0
2014-Jul-20 17:33N 40°19' E 122°05'0 0.0
2014-Jul-20 16:32N 40°19' E 122°05'0 0.0
2014-Jul-20 15:33N 40°19' E 122°05'0 0.0
2014-Jul-20 14:32N 40°19' E 122°05'0 0.0
2014-Jul-20 13:33N 40°19' E 122°05'0 0.0
2014-Jul-20 12:32N 40°19' E 122°05'0 0.0
2014-Jul-20 11:32N 40°19' E 122°05'0 0.0
2014-Jul-20 10:32N 40°19' E 122°05'0 0.0
2014-Jul-20 09:15N 40°19' E 122°05'0 0.0
2014-Jul-20 08:32N 40°19' E 122°05'0 0.0
2014-Jul-20 07:32N 40°19' E 122°05'0 0.0
2014-Jul-20 06:33N 40°19' E 122°05'0 0.0
2014-Jul-20 05:32N 40°19' E 122°05'0 0.0
2014-Jul-20 04:32N 40°19' E 122°05'0 0.0
2014-Jul-20 03:32N 40°19' E 122°05'0 0.0
2014-Jul-20 02:32N 40°19' E 122°05'0 0.0
2014-Jul-20 01:32N 40°19' E 122°05'0 0.0
2014-Jul-20 00:32N 40°19' E 122°05'0 0.0
2014-Jul-19 23:32N 40°19' E 122°05'0 0.0
2014-Jul-19 22:32N 40°19' E 122°05'0 0.0
2014-Jul-19 21:33N 40°19' E 122°05'0 0.0
2014-Jul-19 20:32N 40°19' E 122°05'0 0.0
2014-Jul-19 19:32N 40°19' E 122°05'0 0.0
2014-Jul-19 18:26N 40°19' E 122°05'0 0.0
2014-Jul-19 17:32N 40°19' E 122°05'0 0.0
2014-Jul-19 16:32N 40°19' E 122°05'0 0.0
2014-Jul-19 15:32N 40°19' E 122°05'0 0.0
2014-Jul-19 14:32N 40°19' E 122°05'0 0.0
2014-Jul-19 13:32N 40°19' E 122°05'0 0.0
2014-Jul-19 12:32N 40°19' E 122°05'0 0.0
2014-Jul-19 11:32N 40°19' E 122°05'0 0.0
2014-Jul-19 10:32N 40°19' E 122°05'0 0.0
2014-Jul-19 09:32N 40°19' E 122°05'0 0.0
2014-Jul-19 08:26N 40°19' E 122°05'0 0.0
2014-Jul-19 07:32N 40°19' E 122°05'0 0.0
2014-Jul-19 06:32N 40°19' E 122°05'1 1.4
2014-Jul-19 05:33N 40°18' E 122°03'8 8.1
2014-Jul-19 04:33N 40°20' E 121°53'3 1.9
2014-Jul-19 03:10N 40°23' E 121°53'  

Dump ship's entire track history